Time;durP1;ratioP1;P1;durP2;ratioP2;P2;SDS_P1;SDS_P2;PMS_P1;PMS_P2;Temp;Humidity;BMP_temperature;BMP_pressure;BME280_temperature;BME280_humidity;BME280_pressure;Samples;Min_cycle;Max_cycle;Signal;HPM_P1;HPM_P2
2023/08/27 00:01:08;;;;;;;;;;;;;;;18.27;57.70;99935.41;4962556;28;6799;-69
2023/08/27 00:03:34;;;;;;;;;;;;;;;18.23;57.49;99948.34;4963308;28;6859;-70
2023/08/27 00:05:59;;;;;;;;;;;;;;;18.19;57.68;99947.44;4963982;28;6812;-69
2023/08/27 00:08:25;;;;;;;;;;;;;;;18.14;57.37;99949.97;4965266;28;6796;-70
2023/08/27 00:10:50;;;;;;;;;;;;;;;18.11;57.76;99952.56;4951298;28;7006;-72
2023/08/27 00:13:16;;;;;;;;;;;;;;;18.06;57.31;99932.63;4982344;28;6803;-70
2023/08/27 00:15:47;;;;;;;;;;;;;;;18.02;57.70;99931.69;4950172;28;7031;-71
2023/08/27 00:18:13;;;;;;;;;;;;;;;17.97;57.96;99920.41;4943404;28;7048;-69
2023/08/27 00:20:41;;;;;;;;;;;;;;;17.94;58.16;99910.88;4963257;28;6935;-71
2023/08/27 00:23:11;;;;;;;;;;;;;;;17.91;58.84;99900.44;4948428;28;7173;-69
2023/08/27 00:25:37;;;;;;;;;;;;;;;17.88;58.68;99896.13;4952178;28;6816;-69
2023/08/27 00:28:03;;;;;;;;;;;;;;;17.84;58.88;99899.53;4964701;28;6788;-69
2023/08/27 00:30:28;;;;;;;;;;;;;;;17.83;58.19;99891.75;4964881;28;6792;-69
2023/08/27 00:32:54;;;;;;;;;;;;;;;17.82;58.88;99885.69;4962665;28;6867;-71
2023/08/27 00:35:19;;;;;;;;;;;;;;;17.80;58.43;99877.03;4945896;28;7061;-69
2023/08/27 00:37:45;;;;;;;;;;;;;;;17.80;59.23;99863.19;4945369;28;6972;-71
2023/08/27 00:40:10;;;;;;;;;;;;;;;17.80;58.99;99874.44;4949224;28;6871;-70
2023/08/27 00:42:36;;;;;;;;;;;;;;;17.76;59.26;99872.66;4946007;28;6979;-71
2023/08/27 00:45:03;;;;;;;;;;;;;;;17.74;59.13;99876.97;4964594;28;6860;-69
2023/08/27 00:47:30;;;;;;;;;;;;;;;17.70;59.01;99883.84;4977953;28;7282;-70
2023/08/27 00:49:56;;;;;;;;;;;;;;;17.69;59.06;99883.84;4948976;28;6812;-69
2023/08/27 00:52:22;;;;;;;;;;;;;;;17.66;59.10;99878.59;4980695;28;6784;-70
2023/08/27 00:54:48;;;;;;;;;;;;;;;17.62;59.10;99878.59;4965114;28;6808;-73
2023/08/27 00:57:14;;;;;;;;;;;;;;;17.59;59.14;99869.91;4962174;28;6824;-68
2023/08/27 00:59:40;;;;;;;;;;;;;;;17.56;58.79;99875.06;4980604;28;6811;-70
2023/08/27 01:02:06;;;;;;;;;;;;;;;17.52;59.15;99873.28;4945634;28;6993;-72
2023/08/27 01:04:31;;;;;;;;;;;;;;;17.47;59.03;99878.41;4965532;28;7007;-70
2023/08/27 01:07:07;;;;;;;;;;;;;;;17.42;58.84;99880.94;4949956;28;6870;-68
2023/08/27 01:09:37;;;;;;;;;;;;;;;17.37;58.84;99892.09;4964645;28;6812;-70
2023/08/27 01:12:22;;;;;;;;;;;;;;;17.30;59.65;99902.41;4980035;28;6796;-71
2023/08/27 01:14:48;;;;;;;;;;;;;;;17.27;59.71;99911.84;4964611;28;7373;-69
2023/08/27 01:17:16;;;;;;;;;;;;;;;17.24;59.91;99912.69;4938381;28;7068;-68
2023/08/27 01:19:42;;;;;;;;;;;;;;;17.23;60.18;99934.25;4945950;28;6964;-69
2023/08/27 01:22:09;;;;;;;;;;;;;;;17.20;59.90;99937.66;4962627;28;6988;-71
2023/08/27 01:24:34;;;;;;;;;;;;;;;17.18;60.30;99938.47;4947269;28;7297;-69
2023/08/27 01:27:05;;;;;;;;;;;;;;;17.14;60.22;99929.81;4963505;28;7107;-69
2023/08/27 01:29:44;;;;;;;;;;;;;;;17.14;60.79;99936.72;4948416;28;7019;-71
2023/08/27 01:32:39;;;;;;;;;;;;;;;17.14;60.54;99941.88;4961496;28;6830;-70
2023/08/27 01:35:06;;;;;;;;;;;;;;;17.12;60.48;99935.81;4962454;28;6816;-70
2023/08/27 01:37:32;;;;;;;;;;;;;;;17.13;60.96;99924.63;4962725;28;6833;-69
2023/08/27 01:40:00;;;;;;;;;;;;;;;17.15;61.02;99922.91;4961342;28;6819;-70
2023/08/27 01:42:27;;;;;;;;;;;;;;;17.18;60.81;99923.81;4975212;28;7578;-70
2023/08/27 01:44:53;;;;;;;;;;;;;;;17.18;60.40;99916.06;4947984;28;7015;-69
2023/08/27 01:47:18;;;;;;;;;;;;;;;17.19;60.62;99910.03;4961618;28;6972;-69
2023/08/27 01:49:44;;;;;;;;;;;;;;;17.22;60.58;99911.78;4962756;28;6788;-71
2023/08/27 01:52:09;;;;;;;;;;;;;;;17.23;60.66;99916.13;4946560;28;7172;-69
2023/08/27 01:54:35;;;;;;;;;;;;;;;17.27;60.93;99917.88;4963128;28;6788;-69
2023/08/27 01:57:00;;;;;;;;;;;;;;;17.30;61.54;99912.75;4946437;28;7052;-70
2023/08/27 01:59:25;;;;;;;;;;;;;;;17.35;61.32;99894.69;4961575;28;6826;-70
2023/08/27 02:01:51;;;;;;;;;;;;;;;17.41;60.91;99904.25;4962641;28;6923;-69
2023/08/27 02:04:16;;;;;;;;;;;;;;;17.47;61.43;99904.31;4975892;28;7311;-70
2023/08/27 02:06:42;;;;;;;;;;;;;;;17.53;61.21;99896.63;4947554;28;6973;-72
2023/08/27 02:09:07;;;;;;;;;;;;;;;17.56;61.25;99899.22;4962323;28;7221;-69
2023/08/27 02:11:33;;;;;;;;;;;;;;;17.63;61.41;99900.19;4968299;28;7261;-69
2023/08/27 02:13:59;;;;;;;;;;;;;;;17.67;60.90;99895.88;4978271;28;6776;-71
2023/08/27 02:16:24;;;;;;;;;;;;;;;17.72;61.10;99883.88;4960226;28;6784;-71
2023/08/27 02:18:49;;;;;;;;;;;;;;;17.76;61.31;99877.84;4961019;28;6931;-69
2023/08/27 02:21:15;;;;;;;;;;;;;;;17.80;60.90;99869.25;4946743;28;6788;-69
2023/08/27 02:23:40;;;;;;;;;;;;;;;17.84;60.83;99872.75;4960789;28;6788;-71
2023/08/27 02:26:06;;;;;;;;;;;;;;;17.87;60.64;99872.78;4944777;28;6874;-71
2023/08/27 02:28:33;;;;;;;;;;;;;;;17.87;60.92;99863.28;4951879;28;7222;-73
2023/08/27 02:30:58;;;;;;;;;;;;;;;17.88;60.81;99870.22;4960124;28;6817;-73
2023/08/27 02:33:24;;;;;;;;;;;;;;;17.90;60.52;99868.50;4961197;28;6884;-73
2023/08/27 02:35:49;;;;;;;;;;;;;;;17.91;60.61;99867.63;4962042;28;7365;-72
2023/08/27 02:38:15;;;;;;;;;;;;;;;17.91;60.44;99865.03;4978806;28;7015;-74
2023/08/27 02:40:40;;;;;;;;;;;;;;;17.92;60.91;99855.56;4977965;28;7209;-74
2023/08/27 02:43:06;;;;;;;;;;;;;;;17.90;60.81;99850.34;4962062;28;6796;-74
2023/08/27 02:45:31;;;;;;;;;;;;;;;17.85;60.63;99844.25;4959554;28;7942;-73
2023/08/27 02:47:57;;;;;;;;;;;;;;;17.84;60.89;99841.66;4960847;28;7154;-73
2023/08/27 02:50:22;;;;;;;;;;;;;;;17.77;60.64;99832.97;4963128;28;6795;-73
2023/08/27 02:52:48;;;;;;;;;;;;;;;17.76;60.93;99828.59;4948242;28;6795;-72
2023/08/27 02:55:13;;;;;;;;;;;;;;;17.77;60.97;99835.56;4962669;28;6872;-73
2023/08/27 02:57:39;;;;;;;;;;;;;;;17.77;60.64;99841.59;4955898;28;6989;-72
2023/08/27 03:00:05;;;;;;;;;;;;;;;17.77;60.89;99853.69;4979251;28;6788;-72
2023/08/27 03:02:30;;;;;;;;;;;;;;;17.76;61.21;99850.22;4960863;28;6931;-72
2023/08/27 03:04:58;;;;;;;;;;;;;;;17.79;61.02;99848.50;4940233;28;6792;-72
2023/08/27 03:07:23;;;;;;;;;;;;;;;17.79;61.03;99845.91;4962260;28;7244;-72
2023/08/27 03:09:49;;;;;;;;;;;;;;;17.82;61.31;99844.22;4960342;28;7056;-73
2023/08/27 03:12:14;;;;;;;;;;;;;;;17.84;61.57;99852.03;4960983;28;6788;-73
2023/08/27 03:14:40;;;;;;;;;;;;;;;17.90;60.94;99867.59;4943951;28;6958;-72
2023/08/27 03:17:06;;;;;;;;;;;;;;;17.93;60.86;99862.47;4945212;28;6816;-73
2023/08/27 03:19:33;;;;;;;;;;;;;;;17.97;61.55;99847.81;4978189;28;6780;-72
2023/08/27 03:21:58;;;;;;;;;;;;;;;18.00;61.09;99866.00;4961916;28;6808;-72
2023/08/27 03:24:23;;;;;;;;;;;;;;;18.04;61.22;99863.47;4962104;28;6855;-73
2023/08/27 03:26:50;;;;;;;;;;;;;;;18.07;61.42;99857.44;4961988;28;6783;-73
2023/08/27 03:29:15;;;;;;;;;;;;;;;18.08;61.78;99860.88;4960443;28;7328;-72
2023/08/27 03:31:41;;;;;;;;;;;;;;;18.08;61.80;99855.72;4961047;28;6788;-73
2023/08/27 03:34:06;;;;;;;;;;;;;;;18.07;61.78;99854.84;4945429;28;6796;-73
2023/08/27 03:36:32;;;;;;;;;;;;;;;18.06;62.07;99858.31;4946175;28;6969;-73
2023/08/27 03:38:58;;;;;;;;;;;;;;;18.03;62.31;99860.81;4979828;28;6999;-72
2023/08/27 03:41:23;;;;;;;;;;;;;;;18.03;61.97;99863.41;4950313;28;7001;-73
2023/08/27 03:43:48;;;;;;;;;;;;;;;18.02;62.61;99862.56;4948605;28;6956;-72
2023/08/27 03:46:14;;;;;;;;;;;;;;;18.02;62.62;99861.69;4946367;28;6968;-72
2023/08/27 03:48:39;;;;;;;;;;;;;;;18.02;62.49;99866.88;4981076;28;6807;-73
2023/08/27 03:51:05;;;;;;;;;;;;;;;18.01;62.64;99863.41;4965048;28;6800;-72
2023/08/27 03:53:31;;;;;;;;;;;;;;;18.05;62.43;99872.09;4945824;28;8040;-72
2023/08/27 03:55:56;;;;;;;;;;;;;;;18.08;62.73;99866.97;4967934;28;6978;-72
2023/08/27 03:58:22;;;;;;;;;;;;;;;18.14;62.91;99867.00;4961197;28;7167;-72
2023/08/27 04:00:48;;;;;;;;;;;;;;;18.20;62.50;99871.34;4964934;28;6792;-72
2023/08/27 04:03:13;;;;;;;;;;;;;;;18.24;62.27;99877.44;4964625;28;7093;-73
2023/08/27 04:05:40;;;;;;;;;;;;;;;18.28;62.92;99874.88;4948690;28;6875;-73
2023/08/27 04:08:06;;;;;;;;;;;;;;;18.33;62.59;99877.50;4949117;28;7168;-73
2023/08/27 04:10:32;;;;;;;;;;;;;;;18.36;62.27;99879.28;4981107;28;6799;-73
2023/08/27 04:12:57;;;;;;;;;;;;;;;18.39;62.26;99874.09;4964008;28;6979;-72
2023/08/27 04:15:23;;;;;;;;;;;;;;;18.40;61.93;99881.91;4947151;28;6834;-73
2023/08/27 04:17:48;;;;;;;;;;;;;;;18.42;62.37;99882.78;4949106;28;6982;-73
2023/08/27 04:20:14;;;;;;;;;;;;;;;18.42;62.25;99887.97;4949705;28;7038;-73
2023/08/27 04:22:39;;;;;;;;;;;;;;;18.44;61.83;99888.00;4947939;28;6792;-73
2023/08/27 04:25:05;;;;;;;;;;;;;;;18.44;62.22;99880.22;4964373;28;7027;-73
2023/08/27 04:27:31;;;;;;;;;;;;;;;18.43;61.95;99894.88;4947552;28;6969;-73
2023/08/27 04:29:56;;;;;;;;;;;;;;;18.44;61.87;99891.44;4948350;28;7203;-73
2023/08/27 04:32:22;;;;;;;;;;;;;;;18.44;62.37;99878.47;4963150;28;6844;-72
2023/08/27 04:34:47;;;;;;;;;;;;;;;18.44;62.44;99881.06;4948521;28;7320;-73
2023/08/27 04:37:12;;;;;;;;;;;;;;;18.45;61.74;99880.22;4949489;28;7601;-72
2023/08/27 04:39:38;;;;;;;;;;;;;;;18.46;61.93;99871.59;4924773;28;7212;-72
2023/08/27 04:42:03;;;;;;;;;;;;;;;18.46;61.96;99876.78;4949768;28;6844;-73
2023/08/27 04:44:31;;;;;;;;;;;;;;;18.50;62.06;99889.75;4950089;28;7199;-73
2023/08/27 04:46:56;;;;;;;;;;;;;;;18.49;61.78;99875.06;4964965;28;7190;-73
2023/08/27 04:49:22;;;;;;;;;;;;;;;18.49;61.80;99872.44;4962998;28;6844;-73
2023/08/27 04:51:47;;;;;;;;;;;;;;;18.47;61.81;99872.44;4964583;28;6791;-73
2023/08/27 04:54:13;;;;;;;;;;;;;;;18.45;61.41;99877.63;4964925;28;7163;-73
2023/08/27 04:56:39;;;;;;;;;;;;;;;18.43;61.72;99884.50;4939980;28;6999;-73
2023/08/27 04:59:06;;;;;;;;;;;;;;;18.42;62.04;99890.56;4981467;28;7173;-73
2023/08/27 05:01:31;;;;;;;;;;;;;;;18.42;61.77;99887.13;4964457;28;6872;-73
2023/08/27 05:03:57;;;;;;;;;;;;;;;18.42;62.21;99885.38;4964310;28;6800;-73
2023/08/27 05:06:22;;;;;;;;;;;;;;;18.49;62.13;99877.66;4964816;28;7270;-73
2023/08/27 05:08:48;;;;;;;;;;;;;;;18.51;62.24;99881.09;4948519;28;7346;-73
2023/08/27 05:11:13;;;;;;;;;;;;;;;18.56;62.00;99892.41;4982347;28;6962;-72
2023/08/27 05:13:39;;;;;;;;;;;;;;;18.60;62.39;99886.38;4965081;28;7059;-73
2023/08/27 05:16:04;;;;;;;;;;;;;;;18.64;62.22;99889.84;4948150;28;6815;-73
2023/08/27 05:18:30;;;;;;;;;;;;;;;18.67;62.04;99895.94;4947220;28;6852;-73
2023/08/27 05:20:55;;;;;;;;;;;;;;;18.73;62.08;99888.19;4964532;28;6871;-72
2023/08/27 05:23:22;;;;;;;;;;;;;;;18.79;61.59;99889.09;4964486;28;6787;-73
2023/08/27 05:25:48;;;;;;;;;;;;;;;18.84;61.69;99897.78;4946481;28;7326;-73
2023/08/27 05:28:13;;;;;;;;;;;;;;;18.87;62.04;99885.66;4964018;28;6784;-73
2023/08/27 05:30:42;;;;;;;;;;;;;;;18.90;61.87;99882.22;4957390;28;6940;-73
2023/08/27 05:33:07;;;;;;;;;;;;;;;18.92;61.81;99870.09;4963918;28;7083;-73
2023/08/27 05:35:33;;;;;;;;;;;;;;;18.95;61.90;99870.16;4949259;28;7496;-73
2023/08/27 05:37:59;;;;;;;;;;;;;;;19.00;61.77;99871.06;4979482;28;7077;-73
2023/08/27 05:40:25;;;;;;;;;;;;;;;19.04;61.79;99871.09;4945630;28;7138;-72
2023/08/27 05:42:50;;;;;;;;;;;;;;;19.06;61.84;99878.00;4964407;28;6780;-72
2023/08/27 05:45:16;;;;;;;;;;;;;;;19.10;61.16;99881.47;4979304;28;6920;-73
2023/08/27 05:47:41;;;;;;;;;;;;;;;19.13;61.70;99878.91;4948489;28;7059;-73
2023/08/27 05:50:07;;;;;;;;;;;;;;;19.16;61.62;99884.13;4948879;28;6804;-73
2023/08/27 05:52:32;;;;;;;;;;;;;;;19.20;61.36;99879.81;4962378;28;7367;-73
2023/08/27 05:54:58;;;;;;;;;;;;;;;19.22;61.44;99881.56;4947123;28;8027;-73
2023/08/27 05:57:23;;;;;;;;;;;;;;;19.25;61.06;99886.75;4964074;28;6840;-75
2023/08/27 05:59:49;;;;;;;;;;;;;;;19.27;61.17;99891.97;4979791;28;7824;-72
2023/08/27 06:02:14;;;;;;;;;;;;;;;19.27;61.60;99895.41;4947018;28;7237;-73
2023/08/27 06:04:40;;;;;;;;;;;;;;;19.28;61.65;99894.56;4962771;28;6776;-73
2023/08/27 06:07:08;;;;;;;;;;;;;;;19.33;61.55;99901.50;4962641;28;7007;-73
2023/08/27 06:09:33;;;;;;;;;;;;;;;19.39;61.31;99892.00;4945851;28;7573;-73
2023/08/27 06:11:59;;;;;;;;;;;;;;;19.46;61.77;99887.69;4980197;28;6809;-73
2023/08/27 06:14:24;;;;;;;;;;;;;;;19.51;61.11;99893.78;4963958;28;6780;-73
2023/08/27 06:16:50;;;;;;;;;;;;;;;19.56;61.20;99884.25;4977711;28;6792;-72
2023/08/27 06:19:15;;;;;;;;;;;;;;;19.57;60.85;99883.38;4963415;28;6792;-72
2023/08/27 06:21:41;;;;;;;;;;;;;;;19.61;60.71;99891.22;4942123;28;7257;-73
2023/08/27 06:24:06;;;;;;;;;;;;;;;19.61;61.18;99880.81;4977606;28;7141;-73
2023/08/27 06:26:32;;;;;;;;;;;;;;;19.61;60.97;99881.66;4962005;28;6779;-73
2023/08/27 06:28:57;;;;;;;;;;;;;;;19.61;60.73;99881.66;4977937;28;6864;-73
2023/08/27 06:31:23;;;;;;;;;;;;;;;19.63;61.07;99884.28;4959970;28;6796;-72
2023/08/27 06:33:48;;;;;;;;;;;;;;;19.64;60.69;99883.41;4961413;28;7146;-73
2023/08/27 06:36:14;;;;;;;;;;;;;;;19.65;60.88;99891.22;4944862;28;6832;-73
2023/08/27 06:38:39;;;;;;;;;;;;;;;19.69;60.96;99903.34;4945376;28;7210;-73
2023/08/27 06:41:04;;;;;;;;;;;;;;;19.75;60.67;99907.69;4961337;28;6784;-73
2023/08/27 06:43:30;;;;;;;;;;;;;;;19.84;61.45;99907.72;4960959;28;7028;-73
2023/08/27 06:45:55;;;;;;;;;;;;;;;19.95;61.30;99902.59;4959562;28;7406;-73
2023/08/27 06:48:21;;;;;;;;;;;;;;;20.07;61.14;99904.31;4976190;28;6788;-73
2023/08/27 06:50:46;;;;;;;;;;;;;;;20.21;61.04;99895.66;4941887;28;6955;-73
2023/08/27 06:53:12;;;;;;;;;;;;;;;20.33;60.71;99886.97;4961021;28;7118;-73
2023/08/27 06:55:37;;;;;;;;;;;;;;;20.40;60.06;99897.38;4945949;28;7115;-73
2023/08/27 06:58:03;;;;;;;;;;;;;;;20.46;59.93;99896.50;4961038;28;7020;-73
2023/08/27 07:00:28;;;;;;;;;;;;;;;20.51;59.81;99894.75;4943530;28;6862;-73
2023/08/27 07:02:54;;;;;;;;;;;;;;;20.55;59.86;99903.44;4962000;28;6796;-73
2023/08/27 07:05:20;;;;;;;;;;;;;;;20.58;59.42;99886.94;4976478;28;6915;-73
2023/08/27 07:07:46;;;;;;;;;;;;;;;20.58;58.75;99893.03;4960515;28;6840;-73
2023/08/27 07:10:14;;;;;;;;;;;;;;;20.60;59.24;99901.72;4940589;28;7197;-73
2023/08/27 07:12:40;;;;;;;;;;;;;;;20.65;59.34;99905.16;4975289;28;6808;-73
2023/08/27 07:15:07;;;;;;;;;;;;;;;20.77;59.15;99906.03;4959246;28;7281;-73
2023/08/27 07:17:33;;;;;;;;;;;;;;;20.94;59.31;99893.84;4960896;28;7059;-74
2023/08/27 07:20:03;;;;;;;;;;;;;;;21.14;59.51;99892.91;4960073;28;6862;-74
2023/08/27 07:22:29;;;;;;;;;;;;;;;21.38;59.35;99888.47;4960727;28;7029;-73
2023/08/27 07:24:55;;;;;;;;;;;;;;;21.60;58.57;99885.75;4977644;28;6776;-73
2023/08/27 07:27:20;;;;;;;;;;;;;;;21.78;58.01;99887.44;4959976;28;6943;-73
2023/08/27 07:29:46;;;;;;;;;;;;;;;21.91;57.33;99888.19;4977257;28;6949;-75
2023/08/27 07:32:11;;;;;;;;;;;;;;;22.04;57.33;99886.38;4960446;28;6784;-73
2023/08/27 07:34:37;;;;;;;;;;;;;;;22.24;57.83;99887.94;4961710;28;6922;-73
2023/08/27 07:37:03;;;;;;;;;;;;;;;22.39;56.79;99889.56;4961995;28;6796;-73
2023/08/27 07:39:28;;;;;;;;;;;;;;;22.51;55.85;99884.28;4961916;28;6787;-73
2023/08/27 07:41:54;;;;;;;;;;;;;;;22.65;56.36;99885.88;4947092;28;7115;-72
2023/08/27 07:44:19;;;;;;;;;;;;;;;22.79;55.85;99893.56;4959000;28;7187;-75
2023/08/27 07:46:45;;;;;;;;;;;;;;;22.92;55.45;99889.94;4960169;28;6788;-73
2023/08/27 07:49:10;;;;;;;;;;;;;;;23.04;54.68;99883.72;4941641;28;6937;-73
2023/08/27 07:51:36;;;;;;;;;;;;;;;23.13;55.22;99883.59;4974027;28;6960;-73
2023/08/27 07:54:02;;;;;;;;;;;;;;;23.25;54.50;99892.16;4978382;28;7014;-73
2023/08/27 07:56:28;;;;;;;;;;;;;;;23.33;53.52;99892.97;4961344;28;6983;-73
2023/08/27 07:58:53;;;;;;;;;;;;;;;23.36;53.85;99894.69;4945310;28;6887;-73
2023/08/27 08:01:19;;;;;;;;;;;;;;;23.38;53.08;99901.63;4937909;28;6988;-73
2023/08/27 08:03:44;;;;;;;;;;;;;;;23.43;52.88;99896.34;4961272;28;6788;-73
2023/08/27 08:06:10;;;;;;;;;;;;;;;23.46;52.75;99898.91;4961773;28;6855;-73
2023/08/27 08:08:36;;;;;;;;;;;;;;;23.49;52.03;99901.47;4977078;28;6780;-73
2023/08/27 08:11:01;;;;;;;;;;;;;;;23.51;51.93;99896.22;4961753;28;6884;-73
2023/08/27 08:13:27;;;;;;;;;;;;;;;23.56;51.62;99891.78;4976668;28;6965;-73
2023/08/27 08:15:53;;;;;;;;;;;;;;;23.60;51.66;99890.00;4972394;28;7039;-73
2023/08/27 08:18:18;;;;;;;;;;;;;;;23.65;51.57;99896.03;4943384;28;6881;-72
2023/08/27 08:20:44;;;;;;;;;;;;;;;23.66;50.86;99893.41;4947092;28;6881;-73
2023/08/27 08:23:09;;;;;;;;;;;;;;;23.64;51.06;99900.38;4964097;28;6776;-73
2023/08/27 08:25:37;;;;;;;;;;;;;;;23.62;50.61;99891.72;4948567;28;6840;-73
2023/08/27 08:28:06;;;;;;;;;;;;;;;23.61;50.19;99894.34;4964986;28;7129;-72
2023/08/27 08:30:31;;;;;;;;;;;;;;;23.60;50.52;99895.22;4960012;28;6980;-73
2023/08/27 08:32:57;;;;;;;;;;;;;;;23.62;50.53;99890.84;4945371;28;7579;-73
2023/08/27 08:35:22;;;;;;;;;;;;;;;23.71;50.71;99885.50;4976583;28;6962;-73
2023/08/27 08:37:48;;;;;;;;;;;;;;;23.85;50.57;99885.25;4974877;28;7051;-72
2023/08/27 08:40:15;;;;;;;;;;;;;;;23.98;50.43;99886.81;4948776;28;7200;-73
2023/08/27 08:42:52;;;;;;;;;;;;;;;24.11;50.16;99895.38;4948138;28;6883;-73
2023/08/27 08:45:46;;;;;;;;;;;;;;;24.27;49.45;99895.09;4980683;28;6823;-73
2023/08/27 08:48:12;;;;;;;;;;;;;;;24.39;49.63;99891.41;4980146;28;6879;-73
2023/08/27 08:50:40;;;;;;;;;;;;;;;24.54;49.87;99893.78;4977692;28;6958;-73
2023/08/27 08:53:17;;;;;;;;;;;;;;;24.70;49.01;99896.09;4946423;28;7071;-73
2023/08/27 08:55:46;;;;;;;;;;;;;;;24.90;49.04;99881.78;4943872;28;7251;-73
2023/08/27 08:58:13;;;;;;;;;;;;;;;25.05;48.35;99898.97;4947684;28;6816;-73
2023/08/27 09:00:39;;;;;;;;;;;;;;;25.11;47.91;99893.59;4961281;28;7293;-73
2023/08/27 09:03:05;;;;;;;;;;;;;;;25.15;47.71;99899.66;4963896;28;7140;-73
2023/08/27 09:05:35;;;;;;;;;;;;;;;25.12;47.20;99900.56;4978963;28;7265;-73
2023/08/27 09:08:03;;;;;;;;;;;;;;;25.05;46.82;99898.97;4980279;28;7027;-73
2023/08/27 09:10:30;;;;;;;;;;;;;;;24.93;46.71;99894.84;4979388;28;7391;-73
2023/08/27 09:12:57;;;;;;;;;;;;;;;24.75;46.67;99901.25;4981039;28;6943;-73
2023/08/27 09:15:23;;;;;;;;;;;;;;;24.55;46.36;99905.97;4947396;28;7151;-72
2023/08/27 09:17:49;;;;;;;;;;;;;;;24.42;47.20;99904.44;4965765;28;6784;-73
2023/08/27 09:20:14;;;;;;;;;;;;;;;24.33;46.79;99905.50;4946373;28;7118;-73
2023/08/27 09:22:40;;;;;;;;;;;;;;;24.31;47.22;99906.41;4948239;28;7015;-73
2023/08/27 09:25:07;;;;;;;;;;;;;;;24.25;47.39;99903.00;4948624;28;7145;-73
2023/08/27 09:27:32;;;;;;;;;;;;;;;24.20;47.11;99899.59;4963979;28;7158;-73
2023/08/27 09:30:00;;;;;;;;;;;;;;;24.21;47.47;99901.31;4962512;28;6919;-73
2023/08/27 09:32:27;;;;;;;;;;;;;;;24.37;47.92;99895.81;4963784;28;6812;-73
2023/08/27 09:35:01;;;;;;;;;;;;;;;24.52;47.58;99899.94;4947823;28;6796;-73
2023/08/27 09:37:27;;;;;;;;;;;;;;;24.68;46.99;99890.03;4980642;28;6803;-72
2023/08/27 09:39:54;;;;;;;;;;;;;;;24.77;47.46;99892.47;4950127;28;6780;-73
2023/08/27 09:42:21;;;;;;;;;;;;;;;25.20;47.02;99879.44;4963708;28;6999;-73
2023/08/27 09:44:52;;;;;;;;;;;;;;;25.91;46.07;99874.38;4946191;28;7315;-73
2023/08/27 09:47:33;;;;;;;;;;;;;;;26.74;44.95;99870.56;4979601;28;6935;-73
2023/08/27 09:50:00;;;;;;;;;;;;;;;27.58;43.54;99874.31;4946485;28;7298;-73
2023/08/27 09:52:26;;;;;;;;;;;;;;;28.35;42.61;99867.47;4979729;28;7041;-73
2023/08/27 09:54:52;;;;;;;;;;;;;;;29.08;40.78;99867.50;4962157;28;6800;-73
2023/08/27 09:57:19;;;;;;;;;;;;;;;29.63;40.14;99860.16;4960426;28;6863;-72
2023/08/27 09:59:46;;;;;;;;;;;;;;;30.25;39.10;99867.38;4968401;28;7807;-72
2023/08/27 10:02:13;;;;;;;;;;;;;;;30.87;37.74;99854.13;4945244;28;6800;-72
2023/08/27 10:04:59;;;;;;;;;;;;;;;31.50;36.77;99852.97;4977216;28;6955;-71
2023/08/27 10:07:24;;;;;;;;;;;;;;;31.66;35.60;99849.59;4946904;28;7188;-71
2023/08/27 10:09:54;;;;;;;;;;;;;;;31.17;35.33;99851.84;4932486;28;7155;-71
2023/08/27 10:12:21;;;;;;;;;;;;;;;30.69;35.61;99838.16;4958553;28;6900;-71
2023/08/27 10:14:47;;;;;;;;;;;;;;;30.70;36.00;99833.72;4946028;28;7241;-71
2023/08/27 10:17:15;;;;;;;;;;;;;;;30.61;35.97;99843.78;4958711;28;6839;-67
2023/08/27 10:19:41;;;;;;;;;;;;;;;30.78;35.26;99834.22;4952569;28;7223;-70
2023/08/27 10:22:07;;;;;;;;;;;;;;;31.24;35.13;99836.59;4977020;28;7083;-70
2023/08/27 10:24:34;;;;;;;;;;;;;;;31.93;35.02;99838.59;4944542;28;6998;-70
2023/08/27 10:27:01;;;;;;;;;;;;;;;32.59;32.95;99834.31;4943709;28;7122;-70
2023/08/27 10:29:28;;;;;;;;;;;;;;;33.01;32.32;99832.13;4944278;28;7561;-70
2023/08/27 10:31:55;;;;;;;;;;;;;;;33.26;31.49;99825.44;4977626;28;7205;-70
2023/08/27 10:34:23;;;;;;;;;;;;;;;33.28;30.64;99830.69;4946788;28;6847;-70
2023/08/27 10:36:51;;;;;;;;;;;;;;;33.30;30.64;99824.31;4969152;28;7219;-70
2023/08/27 10:39:24;;;;;;;;;;;;;;;33.47;30.27;99831.38;4943231;28;7051;-70
2023/08/27 10:41:49;;;;;;;;;;;;;;;33.57;29.74;99823.72;4949996;28;7316;-70
2023/08/27 10:44:22;;;;;;;;;;;;;;;33.83;29.97;99824.00;4959834;28;6779;-70
2023/08/27 10:47:06;;;;;;;;;;;;;;;33.84;28.96;99825.72;4944445;28;6816;-70
2023/08/27 10:49:37;;;;;;;;;;;;;;;33.86;29.05;99826.47;4974551;28;6839;-70
2023/08/27 10:52:19;;;;;;;;;;;;;;;33.93;28.49;99825.19;4941866;28;6886;-70
2023/08/27 10:54:46;;;;;;;;;;;;;;;33.79;28.63;99825.13;4935441;28;6986;-70
2023/08/27 10:57:20;;;;;;;;;;;;;;;33.71;28.60;99824.75;4957757;28;6907;-70
2023/08/27 10:59:45;;;;;;;;;;;;;;;33.75;28.94;99823.59;4943044;28;6972;-70
2023/08/27 11:02:11;;;;;;;;;;;;;;;34.00;29.22;99819.53;4941666;28;6880;-70
2023/08/27 11:04:44;;;;;;;;;;;;;;;34.46;28.75;99823.84;4970229;28;6852;-70
2023/08/27 11:07:17;;;;;;;;;;;;;;;34.62;27.45;99826.44;4955942;28;6816;-70
2023/08/27 11:10:02;;;;;;;;;;;;;;;34.06;27.66;99821.81;4945121;28;6888;-70
2023/08/27 11:12:34;;;;;;;;;;;;;;;33.10;28.53;99821.00;4943120;28;6880;-70
2023/08/27 11:15:11;;;;;;;;;;;;;;;32.02;29.67;99835.50;4957722;28;6816;-70
2023/08/27 11:17:38;;;;;;;;;;;;;;;31.01;30.08;99833.19;4941357;28;6804;-70
2023/08/27 11:20:22;;;;;;;;;;;;;;;30.02;30.54;99830.41;4941968;28;6800;-70
2023/08/27 11:22:58;;;;;;;;;;;;;;;29.25;31.12;99837.84;4939334;28;6907;-70
2023/08/27 11:25:31;;;;;;;;;;;;;;;28.59;32.68;99846.44;4958807;28;7271;-70
2023/08/27 11:28:02;;;;;;;;;;;;;;;28.22;33.43;99842.47;4952670;28;7161;-70
2023/08/27 11:30:28;;;;;;;;;;;;;;;28.68;34.53;99842.59;4971274;28;6883;-70
2023/08/27 11:32:54;;;;;;;;;;;;;;;29.27;33.42;99840.44;4956035;28;6882;-70
2023/08/27 11:35:26;;;;;;;;;;;;;;;29.95;32.94;99847.44;4937293;28;7304;-71
2023/08/27 11:37:53;;;;;;;;;;;;;;;30.11;32.09;99834.47;4940561;28;7165;-71
2023/08/27 11:40:19;;;;;;;;;;;;;;;29.79;32.15;99831.34;4954538;28;7563;-70
2023/08/27 11:42:49;;;;;;;;;;;;;;;29.99;32.88;99825.25;4958623;28;7330;-70
2023/08/27 11:45:15;;;;;;;;;;;;;;;30.51;31.93;99831.88;4945574;28;6804;-71
2023/08/27 11:47:42;;;;;;;;;;;;;;;30.96;30.70;99821.09;4936459;28;7190;-71
2023/08/27 11:50:08;;;;;;;;;;;;;;;31.38;30.25;99827.94;4959673;28;7261;-72
2023/08/27 11:52:38;;;;;;;;;;;;;;;31.77;30.07;99826.09;4960604;28;7197;-71
2023/08/27 11:55:05;;;;;;;;;;;;;;;31.94;29.38;99825.25;4958895;28;6886;-71
2023/08/27 11:57:32;;;;;;;;;;;;;;;32.06;29.75;99814.97;4979267;28;6963;-71
2023/08/27 11:59:58;;;;;;;;;;;;;;;32.38;29.78;99809.84;4946563;28;6951;-71
2023/08/27 12:02:23;;;;;;;;;;;;;;;32.70;28.73;99817.84;4947647;28;6795;-72
2023/08/27 12:04:50;;;;;;;;;;;;;;;33.06;28.61;99813.28;4963852;28;6783;-71
2023/08/27 12:07:27;;;;;;;;;;;;;;;33.43;28.42;99808.56;4947795;28;7016;-71
2023/08/27 12:09:53;;;;;;;;;;;;;;;33.57;27.44;99805.13;4960558;28;6820;-71
2023/08/27 12:12:18;;;;;;;;;;;;;;;33.61;27.63;99808.47;4976387;28;7122;-71
2023/08/27 12:14:45;;;;;;;;;;;;;;;33.70;27.33;99810.59;4961072;28;6780;-71
2023/08/27 12:17:11;;;;;;;;;;;;;;;33.77;27.60;99809.28;4940788;28;9211;-71
2023/08/27 12:19:38;;;;;;;;;;;;;;;33.59;27.35;99805.88;4946853;28;10098;-70
2023/08/27 12:22:04;;;;;;;;;;;;;;;33.26;26.98;99809.53;4941441;28;10375;-72
2023/08/27 12:24:35;;;;;;;;;;;;;;;32.49;27.56;99795.97;4977132;28;10324;-71
2023/08/27 12:27:06;;;;;;;;;;;;;;;31.66;27.80;99813.38;4944642;28;7113;-71
2023/08/27 12:29:36;;;;;;;;;;;;;;;30.94;28.57;99812.38;4959001;28;6876;-72
2023/08/27 12:32:12;;;;;;;;;;;;;;;30.69;29.54;99816.16;4925432;28;6860;-72
2023/08/27 12:34:39;;;;;;;;;;;;;;;30.40;29.11;99808.56;4960597;28;11081;-71
2023/08/27 12:37:06;;;;;;;;;;;;;;;29.96;29.79;99828.03;4971859;28;7521;-71
2023/08/27 12:39:32;;;;;;;;;;;;;;;29.45;30.13;99832.75;4942510;28;6816;-72
2023/08/27 12:42:01;;;;;;;;;;;;;;;29.03;30.30;99829.03;4957588;28;6875;-71
2023/08/27 12:44:27;;;;;;;;;;;;;;;29.07;30.96;99820.09;4940081;28;6796;-72
2023/08/27 12:46:53;;;;;;;;;;;;;;;29.61;32.24;99817.16;4942222;28;7317;-71
2023/08/27 12:49:18;;;;;;;;;;;;;;;30.32;31.08;99814.19;4942874;28;6943;-72
2023/08/27 12:51:45;;;;;;;;;;;;;;;30.99;30.27;99819.16;4974779;28;10879;-71
2023/08/27 12:54:11;;;;;;;;;;;;;;;31.61;30.38;99818.03;4944780;28;6804;-70
2023/08/27 12:56:37;;;;;;;;;;;;;;;32.07;29.42;99811.41;4959588;28;6792;-71